Terminal Aerodrome Forecast
Issued by NWS Omaha/Valley, NE

Home | Current Version | Previous Version | Text Only | Print | Product List | Glossary On
Versions: 1 2 3 4 5 6 7 8 9 10 11 12 13 14 15 16 17 18 19 20 21 22 23 24 25 26 27 28 29 30 31 32 33 34 35 36 37 38 39 40 41 42 43 44 45 46 47 48 49 50
000
FTUS43 KOAX 250323 AAA
TAFOFK
TAF AMD
KOFK 250323Z 2503/2524 01014G22KT P6SM OVC008
      TEMPO 2503/2506 5SM -RA BR OVC006
     FM251100 36015G23KT P6SM OVC005
     FM251700 36014G23KT P6SM OVC008
     FM252000 36014G23KT P6SM BKN015=

USA.gov is the U.S. government's official web portal to all federal, state and local government web resources and services.